Time;durP1;ratioP1;P1;durP2;ratioP2;P2;SDS_P1;SDS_P2;PMS_P1;PMS_P2;Temp;Humidity;BMP_temperature;BMP_pressure;BME280_temperature;BME280_humidity;BME280_pressure;Samples;Min_cycle;Max_cycle;Signal;HPM_P1;HPM_P2
2022/12/02 00:00:14;;;;;;;21.90;12.10;;;;;;;6.74;74.89;99997.69;342245;28;1116;-70
2022/12/02 00:00:27;;;;;;;21.65;12.10;;;;;;;6.75;74.69;99989.03;340998;29;1177;-70
2022/12/02 00:00:40;;;;;;;22.05;11.98;;;;;;;6.76;74.49;99995.94;340810;29;1064;-70
2022/12/02 00:00:52;;;;;;;22.10;11.52;;;;;;;6.77;73.95;99987.28;341068;29;1055;-70
2022/12/02 00:01:04;;;;;;;22.40;11.95;;;;;;;6.78;73.72;99989.03;340965;28;1103;-70
2022/12/02 00:01:17;;;;;;;23.95;12.65;;;;;;;6.76;74.13;99990.75;341153;28;1339;-71
2022/12/02 00:01:31;;;;;;;24.00;12.85;;;;;;;6.77;74.31;99991.63;342435;28;1061;-70
2022/12/02 00:01:44;;;;;;;21.70;12.18;;;;;;;6.77;74.08;99987.28;342538;28;1192;-70
2022/12/02 00:02:34;;;;;;;21.30;12.13;;;;;;;6.88;74.34;99984.59;342542;28;1290;-70
2022/12/02 00:02:47;;;;;;;22.40;11.68;;;;;;;6.90;74.30;99988.03;339333;29;1082;-70
2022/12/02 00:02:59;;;;;;;21.33;11.13;;;;;;;6.93;74.29;99992.28;339461;29;2134;-71
2022/12/02 00:03:15;;;;;;;21.40;11.20;;;;;;;6.87;73.81;99992.38;339525;29;1060;-71
2022/12/02 00:03:28;;;;;;;24.23;11.70;;;;;;;6.83;73.28;99990.69;339485;29;1144;-71
2022/12/02 00:03:40;;;;;;;25.50;12.60;;;;;;;6.80;73.91;99987.28;339873;29;1133;-70
2022/12/02 00:03:55;;;;;;;24.30;13.00;;;;;;;6.76;73.67;99990.75;339493;29;1054;-70
2022/12/02 00:04:27;;;;;;;24.48;12.70;;;;;;;6.75;73.62;99988.19;339387;29;1063;-70
2022/12/02 00:04:40;;;;;;;27.73;12.73;;;;;;;6.74;74.18;99987.34;338795;29;1330;-70
2022/12/02 00:05:02;;;;;;;26.02;12.43;;;;;;;6.77;74.05;99989.88;339490;29;1116;-70
2022/12/02 00:05:15;;;;;;;23.60;12.32;;;;;;;6.77;73.91;99991.63;340331;29;1133;-70
2022/12/02 00:05:33;;;;;;;25.30;12.73;;;;;;;6.73;73.97;99988.19;340882;29;1058;-70
2022/12/02 00:05:48;;;;;;;25.02;12.63;;;;;;;6.70;73.87;99990.84;340678;29;1348;-70
2022/12/02 00:06:00;;;;;;;25.13;12.35;;;;;;;6.71;74.19;99982.19;340937;29;986;-70
2022/12/02 00:06:19;;;;;;;25.13;12.55;;;;;;;6.74;73.69;99986.47;340663;29;1069;-70
2022/12/02 00:06:32;;;;;;;25.55;12.82;;;;;;;6.78;73.54;99994.19;340791;29;1238;-70
2022/12/02 00:06:44;;;;;;;25.52;12.52;;;;;;;6.80;73.56;99984.69;340739;29;1114;-70
2022/12/02 00:06:58;;;;;;;26.70;12.77;;;;;;;6.83;73.67;99982.94;340677;29;1687;-70
2022/12/02 00:07:19;;;;;;;26.08;13.20;;;;;;;6.88;73.48;99988.88;340218;28;3893;-70
2022/12/02 00:07:32;;;;;;;23.73;12.88;;;;;;;6.90;73.44;99988.03;340517;29;4132;-70
2022/12/02 00:07:45;;;;;;;22.30;11.82;;;;;;;6.94;73.57;99984.53;340955;29;1046;-70
2022/12/02 00:08:00;;;;;;;20.48;11.15;;;;;;;6.98;73.41;99980.16;340641;29;3950;-70
2022/12/02 00:08:19;;;;;;;19.67;10.52;;;;;;;7.03;73.79;99986.13;341230;29;803;-70
2022/12/02 00:08:32;;;;;;;18.90;10.18;;;;;;;7.03;73.28;99988.72;341112;29;1066;-71
2022/12/02 00:08:44;;;;;;;19.60;10.85;;;;;;;7.04;73.67;99985.25;340780;29;1094;-71
2022/12/02 00:09:18;;;;;;;21.60;11.90;;;;;;;6.98;72.95;99985.31;340880;29;1108;-71
2022/12/02 00:09:34;;;;;;;22.75;12.02;;;;;;;6.97;73.08;99984.47;342760;28;861;-70
2022/12/02 00:09:46;;;;;;;21.83;11.90;;;;;;;6.97;73.99;99979.31;342832;28;992;-70
2022/12/02 00:09:58;;;;;;;22.20;11.88;;;;;;;6.98;73.74;99983.63;342231;28;1204;-70
2022/12/02 00:10:25;;;;;;;22.80;12.20;;;;;;;6.97;73.27;99987.06;342527;28;1044;-71
2022/12/02 00:10:37;;;;;;;23.42;12.52;;;;;;;6.96;73.39;99981.91;342897;28;1337;-70
2022/12/02 00:10:53;;;;;;;23.63;12.75;;;;;;;6.96;73.37;99985.34;342660;28;1032;-71
2022/12/02 00:11:26;;;;;;;23.83;12.55;;;;;;;7.00;73.21;99984.44;342689;28;1090;-71
2022/12/02 00:11:39;;;;;;;25.02;12.32;;;;;;;6.99;73.11;99977.56;342585;28;1110;-70
2022/12/02 00:11:51;;;;;;;22.20;11.95;;;;;;;6.97;73.19;99983.63;342534;28;1099;-70
2022/12/02 00:12:16;;;;;;;22.20;12.00;;;;;;;6.99;72.90;99987.03;342575;28;1275;-70
2022/12/02 00:12:30;;;;;;;23.83;12.20;;;;;;;6.99;73.12;99982.72;342662;28;899;-70
2022/12/02 00:12:42;;;;;;;22.67;12.18;;;;;;;7.01;73.13;99990.47;342849;28;817;-70
2022/12/02 00:13:04;;;;;;;21.35;11.88;;;;;;;7.03;72.92;99983.53;343878;28;1097;-70
2022/12/02 00:13:19;;;;;;;20.23;11.23;;;;;;;7.05;72.98;99983.53;343160;28;3704;-70
2022/12/02 00:13:41;;;;;;;20.60;11.38;;;;;;;7.06;72.85;99983.50;343898;28;1627;-71
2022/12/02 00:13:59;;;;;;;20.67;11.40;;;;;;;7.09;72.17;99992.97;342915;28;1183;-70
2022/12/02 00:14:34;;;;;;;22.25;11.32;;;;;;;7.09;72.23;99983.47;342953;28;1438;-70
2022/12/02 00:15:08;;;;;;;23.10;11.93;;;;;;;7.10;72.17;99987.78;342666;28;1806;-70
2022/12/02 00:15:40;;;;;;;21.85;12.15;;;;;;;7.12;72.07;99980.84;339971;28;1580;-70
2022/12/02 00:15:59;;;;;;;22.42;11.63;;;;;;;7.15;72.60;99980.78;339669;29;1025;-70
2022/12/02 00:16:25;;;;;;;21.60;11.18;;;;;;;7.18;71.95;99978.19;340091;29;1288;-71
2022/12/02 00:16:37;;;;;;;19.63;11.48;;;;;;;7.17;72.19;99981.63;343517;28;1495;-70
2022/12/02 00:16:50;;;;;;;20.50;11.55;;;;;;;7.18;72.40;99983.34;342821;28;769;-70
2022/12/02 00:17:02;;;;;;;20.80;11.38;;;;;;;7.20;72.27;99980.72;340836;29;1052;-71
2022/12/02 00:17:14;;;;;;;22.05;11.80;;;;;;;7.20;72.08;99981.59;340504;29;1820;-70
2022/12/02 00:17:27;;;;;;;22.65;12.23;;;;;;;7.22;72.09;99983.28;339821;29;1189;-70
2022/12/02 00:17:39;;;;;;;23.08;12.27;;;;;;;7.22;72.17;99984.16;339942;29;1154;-70
2022/12/02 00:17:51;;;;;;;23.05;12.32;;;;;;;7.23;72.02;99985.03;339782;29;2290;-70
2022/12/02 00:18:03;;;;;;;21.95;12.13;;;;;;;7.23;72.03;99979.84;338520;29;1093;-70
2022/12/02 00:18:16;;;;;;;22.15;12.30;;;;;;;7.24;72.08;99981.53;338301;29;1342;-71
2022/12/02 00:18:29;;;;;;;23.42;12.27;;;;;;;7.26;72.13;99979.78;338860;29;1267;-70
2022/12/02 00:18:41;;;;;;;21.90;11.95;;;;;;;7.28;71.99;99983.22;340578;28;1257;-70
2022/12/02 00:18:55;;;;;;;21.45;11.88;;;;;;;7.29;72.11;99984.94;337680;29;1664;-71
2022/12/02 00:19:07;;;;;;;21.55;11.77;;;;;;;7.29;72.16;99975.44;338253;29;1076;-71
2022/12/02 00:19:19;;;;;;;21.90;11.98;;;;;;;7.29;72.27;99979.75;339503;29;1420;-71
2022/12/02 00:19:31;;;;;;;23.13;12.05;;;;;;;7.27;71.99;99982.38;340182;29;1822;-71
2022/12/02 00:19:43;;;;;;;22.77;11.93;;;;;;;7.29;72.17;99975.44;340149;29;1579;-71
2022/12/02 00:19:55;;;;;;;22.70;11.95;;;;;;;7.30;71.72;99982.31;340973;29;1040;-71
2022/12/02 00:20:08;;;;;;;22.15;12.32;;;;;;;7.31;72.09;99973.69;341184;29;1055;-70
2022/12/02 00:20:20;;;;;;;22.48;12.15;;;;;;;7.32;72.18;99983.13;340557;28;1182;-70
2022/12/02 00:20:32;;;;;;;22.58;12.15;;;;;;;7.33;71.70;99982.28;341006;29;1189;-70
2022/12/02 00:20:45;;;;;;;21.95;12.38;;;;;;;7.35;71.87;99977.09;341472;28;1036;-70
2022/12/02 00:20:57;;;;;;;22.95;12.70;;;;;;;7.34;71.79;99983.13;342424;28;1861;-70
2022/12/02 00:21:09;;;;;;;23.17;12.68;;;;;;;7.34;71.86;99977.94;343749;28;1051;-71
2022/12/02 00:21:21;;;;;;;23.50;12.52;;;;;;;7.32;71.39;99974.53;343714;28;1317;-71
2022/12/02 00:21:33;;;;;;;24.52;12.77;;;;;;;7.31;71.41;99978.00;344315;28;1790;-70
2022/12/02 00:21:48;;;;;;;22.60;12.70;;;;;;;7.30;71.73;99979.72;344994;28;1106;-70
2022/12/02 00:22:00;;;;;;;22.73;12.68;;;;;;;7.30;71.44;99976.28;344133;28;1194;-70
2022/12/02 00:22:13;;;;;;;23.42;12.68;;;;;;;7.29;71.50;99977.19;343687;28;1068;-70
2022/12/02 00:22:25;;;;;;;22.65;12.30;;;;;;;7.29;71.89;99980.63;343723;28;1402;-71
2022/12/02 00:22:37;;;;;;;21.50;11.90;;;;;;;7.30;71.81;99978.88;343977;28;1684;-71
2022/12/02 00:22:49;;;;;;;21.67;11.60;;;;;;;7.31;71.68;99973.69;344123;28;964;-70
2022/12/02 00:23:02;;;;;;;23.40;11.98;;;;;;;7.30;71.71;99978.88;342732;28;734;-70
2022/12/02 00:23:14;;;;;;;26.58;12.50;;;;;;;7.31;72.15;99978.00;341814;28;2116;-71
2022/12/02 00:23:26;;;;;;;26.65;12.55;;;;;;;7.32;71.90;99979.69;340901;29;1039;-70
2022/12/02 00:23:38;;;;;;;25.45;12.15;;;;;;;7.30;72.26;99973.69;341364;28;2036;-71
2022/12/02 00:23:50;;;;;;;22.08;11.93;;;;;;;7.32;72.17;99972.78;340987;28;1693;-71
2022/12/02 00:24:03;;;;;;;21.00;12.00;;;;;;;7.27;72.32;99972.03;341053;28;1610;-71
2022/12/02 00:24:15;;;;;;;21.38;12.30;;;;;;;7.27;72.59;99977.19;341340;28;1126;-70
2022/12/02 00:24:27;;;;;;;22.80;12.93;;;;;;;7.28;72.47;99972.88;341094;29;1111;-71
2022/12/02 00:24:39;;;;;;;24.23;13.63;;;;;;;7.27;72.57;99976.34;341030;28;1692;-70
2022/12/02 00:24:51;;;;;;;23.45;13.80;;;;;;;7.27;72.74;99973.75;340993;29;1139;-70
2022/12/02 00:25:04;;;;;;;23.40;13.43;;;;;;;7.26;72.28;99969.44;341729;28;2071;-70
2022/12/02 00:25:16;;;;;;;23.23;13.30;;;;;;;7.28;72.83;99970.28;343327;28;1255;-70
2022/12/02 00:25:29;;;;;;;24.58;13.02;;;;;;;7.29;72.68;99978.03;344275;28;987;-70
2022/12/02 00:25:45;;;;;;;23.90;12.70;;;;;;;7.28;72.61;99973.72;343258;28;1385;-71
2022/12/02 00:25:57;;;;;;;21.95;12.20;;;;;;;7.30;72.58;99963.34;343546;28;1089;-71
2022/12/02 00:26:09;;;;;;;23.33;12.18;;;;;;;7.30;72.78;99965.94;343363;28;1094;-70
2022/12/02 00:26:21;;;;;;;24.20;12.48;;;;;;;7.32;72.30;99974.53;343534;28;1431;-70
2022/12/02 00:26:33;;;;;;;22.60;12.05;;;;;;;7.31;72.21;99972.84;343460;28;1506;-70
2022/12/02 00:26:46;;;;;;;21.48;12.10;;;;;;;7.33;72.50;99974.53;343801;28;1244;-70
2022/12/02 00:26:57;;;;;;;22.10;11.82;;;;;;;7.35;72.67;99966.75;342103;28;1985;-70
2022/12/02 00:27:10;;;;;;;23.27;12.00;;;;;;;7.35;72.24;99974.50;341952;28;1854;-71
2022/12/02 00:27:22;;;;;;;22.70;12.13;;;;;;;7.36;72.49;99971.91;340785;28;2145;-70
2022/12/02 00:27:34;;;;;;;23.27;12.27;;;;;;;7.39;72.13;99976.16;341410;28;1358;-71
2022/12/02 00:27:46;;;;;;;23.30;12.52;;;;;;;7.38;72.05;99969.28;342552;28;1274;-72
2022/12/02 00:27:58;;;;;;;24.05;12.70;;;;;;;7.40;72.29;99972.69;342313;28;1296;-72
2022/12/02 00:28:10;;;;;;;23.73;12.45;;;;;;;7.40;71.93;99972.69;342807;28;1191;-72
2022/12/02 00:28:22;;;;;;;24.10;12.63;;;;;;;7.41;71.76;99971.84;343245;28;1306;-72
2022/12/02 00:28:34;;;;;;;23.08;12.65;;;;;;;7.41;72.06;99971.84;343291;28;1186;-72
2022/12/02 00:28:46;;;;;;;21.70;12.13;;;;;;;7.42;71.93;99970.09;341416;28;1890;-72
2022/12/02 00:28:58;;;;;;;21.60;11.88;;;;;;;7.42;71.72;99970.94;340751;29;1105;-72
2022/12/02 00:29:11;;;;;;;22.98;12.30;;;;;;;7.42;71.98;99970.94;341223;29;1111;-72
2022/12/02 00:29:23;;;;;;;21.38;12.02;;;;;;;7.40;72.02;99976.16;341554;28;2171;-72
2022/12/02 00:29:35;;;;;;;22.38;12.32;;;;;;;7.39;71.91;99974.44;342371;28;1101;-72
2022/12/02 00:29:47;;;;;;;21.35;12.13;;;;;;;7.41;72.05;99977.00;342219;28;1182;-72
2022/12/02 00:29:59;;;;;;;21.25;12.10;;;;;;;7.38;71.90;99971.84;340329;28;6718;-72
2022/12/02 00:30:11;;;;;;;22.88;12.30;;;;;;;7.36;71.79;99971.91;341363;28;4298;-72
2022/12/02 00:30:24;;;;;;;27.23;13.27;;;;;;;7.33;71.70;99976.25;342361;28;1259;-72
2022/12/02 00:30:36;;;;;;;26.02;12.95;;;;;;;7.30;72.08;99968.53;341116;29;7580;-72
2022/12/02 00:30:48;;;;;;;22.42;12.50;;;;;;;7.30;71.93;99971.97;341298;29;1883;-72
2022/12/02 00:31:00;;;;;;;22.05;12.30;;;;;;;7.28;71.92;99972.88;340331;28;2201;-72
2022/12/02 00:31:13;;;;;;;23.92;12.82;;;;;;;7.28;72.02;99972.88;340776;29;1788;-72
2022/12/02 00:31:25;;;;;;;24.50;12.85;;;;;;;7.27;72.04;99971.19;339471;29;1315;-72
2022/12/02 00:31:37;;;;;;;22.63;12.45;;;;;;;7.27;71.73;99968.59;339452;29;1023;-72
2022/12/02 00:31:49;;;;;;;22.98;12.65;;;;;;;7.27;72.01;99971.19;338920;29;1248;-72
2022/12/02 00:32:01;;;;;;;22.98;12.52;;;;;;;7.26;71.47;99969.44;339738;29;4567;-72
2022/12/02 00:32:14;;;;;;;22.10;11.77;;;;;;;7.24;71.79;99971.19;340199;28;2037;-72
2022/12/02 00:32:26;;;;;;;21.70;11.95;;;;;;;7.25;71.42;99973.78;342232;28;1061;-72
2022/12/02 00:32:38;;;;;;;22.67;12.43;;;;;;;7.27;71.60;99966.00;341725;28;1009;-72
2022/12/02 00:32:50;;;;;;;22.55;12.73;;;;;;;7.25;71.29;99978.09;342535;28;1202;-72
2022/12/02 00:33:02;;;;;;;22.33;12.45;;;;;;;7.23;71.38;99969.50;341413;29;738;-72
2022/12/02 00:33:16;;;;;;;21.30;12.43;;;;;;;7.24;71.63;99960.84;341092;29;1219;-72
2022/12/02 00:33:28;;;;;;;20.35;12.02;;;;;;;7.25;71.52;99968.59;339965;29;1180;-72
2022/12/02 00:33:40;;;;;;;21.95;12.05;;;;;;;7.24;71.71;99971.19;339898;29;1088;-72
2022/12/02 00:33:53;;;;;;;22.75;12.13;;;;;;;7.23;71.78;99970.34;339825;29;1096;-72
2022/12/02 00:34:05;;;;;;;22.35;11.95;;;;;;;7.20;71.29;99971.25;339878;29;1063;-72
2022/12/02 00:34:17;;;;;;;24.13;12.40;;;;;;;7.25;71.38;99965.16;338586;29;2192;-72
2022/12/02 00:34:30;;;;;;;23.80;12.65;;;;;;;7.25;71.50;99967.75;340000;29;1238;-72
2022/12/02 00:34:42;;;;;;;21.48;12.45;;;;;;;7.25;71.82;99965.16;339716;29;1721;-72
2022/12/02 00:34:54;;;;;;;20.90;12.23;;;;;;;7.28;71.56;99967.69;341204;29;1227;-72
2022/12/02 00:35:06;;;;;;;20.55;11.75;;;;;;;7.30;71.94;99965.94;340484;29;1066;-72
2022/12/02 00:35:19;;;;;;;19.00;11.02;;;;;;;7.32;71.51;99971.94;340936;29;1396;-72
2022/12/02 00:35:31;;;;;;;19.65;10.75;;;;;;;7.32;71.46;99969.38;340150;29;1249;-72
2022/12/02 00:35:44;;;;;;;20.95;11.00;;;;;;;7.34;71.77;99967.59;339538;29;1343;-72
2022/12/02 00:35:56;;;;;;;22.70;11.73;;;;;;;7.35;71.33;99969.34;340247;29;1091;-72
2022/12/02 00:36:08;;;;;;;22.45;11.30;;;;;;;7.36;71.64;99966.72;338522;29;1475;-72
2022/12/02 00:36:20;;;;;;;21.17;10.85;;;;;;;7.36;71.31;99971.91;338946;29;1338;-72
2022/12/02 00:36:32;;;;;;;19.92;10.60;;;;;;;7.38;71.09;99972.75;339644;29;2092;-72
2022/12/02 00:36:44;;;;;;;19.83;11.02;;;;;;;7.38;71.71;99971.84;340178;28;1891;-72
2022/12/02 00:36:56;;;;;;;19.45;11.10;;;;;;;7.39;70.97;99976.16;340946;29;1098;-72
2022/12/02 00:37:08;;;;;;;19.20;11.25;;;;;;;7.39;71.40;99976.16;341638;28;1071;-72
2022/12/02 00:37:20;;;;;;;19.67;11.02;;;;;;;7.38;71.41;99971.84;341905;28;2037;-76
2022/12/02 00:37:32;;;;;;;20.52;11.20;;;;;;;7.39;71.11;99971.00;343501;28;1823;-74
2022/12/02 00:37:44;;;;;;;19.23;10.80;;;;;;;7.40;71.25;99972.69;344738;28;1070;-72
2022/12/02 00:37:56;;;;;;;18.40;10.88;;;;;;;7.38;71.06;99974.44;342598;28;2034;-72
2022/12/02 00:38:08;;;;;;;18.60;11.00;;;;;;;7.37;71.29;99967.59;341076;28;1829;-72
2022/12/02 00:38:19;;;;;;;18.75;11.02;;;;;;;7.37;71.28;99977.94;341936;28;1486;-72
2022/12/02 00:38:31;;;;;;;20.15;10.75;;;;;;;7.36;71.46;99966.72;342612;28;1162;-72
2022/12/02 00:38:43;;;;;;;20.90;11.07;;;;;;;7.37;71.50;99970.16;340918;28;1912;-72
2022/12/02 00:38:56;;;;;;;21.33;11.50;;;;;;;7.35;70.83;99971.91;342385;28;1651;-72
2022/12/02 00:39:08;;;;;;;22.38;11.82;;;;;;;7.30;70.80;99968.53;341978;28;2214;-72
2022/12/02 00:39:20;;;;;;;23.25;12.07;;;;;;;7.31;70.91;99973.69;341810;28;1807;-72
2022/12/02 00:39:32;;;;;;;22.55;12.25;;;;;;;7.29;71.26;99969.44;342450;28;1063;-72
2022/12/02 00:39:44;;;;;;;23.00;12.07;;;;;;;7.30;71.22;99969.38;342332;28;1154;-72
2022/12/02 00:39:56;;;;;;;22.75;11.98;;;;;;;7.30;71.00;99969.38;342705;28;1239;-72
2022/12/02 00:40:10;;;;;;;23.58;12.13;;;;;;;7.31;71.04;99970.25;342659;28;1099;-72
2022/12/02 00:40:22;;;;;;;24.33;12.40;;;;;;;7.23;71.11;99966.94;343607;28;1271;-72
2022/12/02 00:40:34;;;;;;;23.30;12.07;;;;;;;7.12;71.07;99965.34;343204;28;1561;-72
2022/12/02 00:40:46;;;;;;;22.30;11.82;;;;;;;7.06;71.62;99967.97;342576;28;2057;-72
2022/12/02 00:40:58;;;;;;;22.90;12.05;;;;;;;7.06;71.75;99962.81;343727;28;1332;-72
2022/12/02 00:41:10;;;;;;;22.73;11.95;;;;;;;7.05;72.01;99963.69;343277;28;722;-72
2022/12/02 00:41:23;;;;;;;23.05;12.27;;;;;;;7.04;72.33;99959.38;343458;28;1266;-72
2022/12/02 00:41:35;;;;;;;23.50;12.63;;;;;;;7.06;72.46;99964.53;341915;28;2028;-72
2022/12/02 00:41:47;;;;;;;23.90;12.98;;;;;;;7.08;72.16;99963.66;342191;28;1598;-72
2022/12/02 00:41:59;;;;;;;23.70;12.68;;;;;;;7.10;72.45;99963.63;342624;28;1129;-72
2022/12/02 00:42:12;;;;;;;22.23;12.18;;;;;;;7.12;71.98;99960.16;342557;28;1138;-72
2022/12/02 00:42:24;;;;;;;21.55;12.25;;;;;;;7.12;72.62;99965.34;340772;28;1876;-72
2022/12/02 00:42:36;;;;;;;21.35;12.05;;;;;;;7.12;72.72;99962.75;340655;29;1317;-72
2022/12/02 00:42:48;;;;;;;22.67;12.23;;;;;;;7.11;72.44;99966.19;341073;29;1214;-72
2022/12/02 00:46:37;;;;;;;23.17;12.43;;;;;;;7.22;72.09;99957.44;342594;28;1194;-72
2022/12/02 00:46:49;;;;;;;23.38;12.25;;;;;;;7.23;72.19;99960.00;342929;28;1398;-72
2022/12/02 00:47:01;;;;;;;23.77;12.15;;;;;;;7.25;71.99;99962.59;343728;28;1020;-72
2022/12/02 00:47:13;;;;;;;22.85;12.23;;;;;;;7.27;71.74;99964.25;344112;28;1424;-72
2022/12/02 00:47:25;;;;;;;22.98;12.60;;;;;;;7.29;71.81;99964.25;343677;28;1398;-72
2022/12/02 00:47:37;;;;;;;22.70;12.85;;;;;;;7.30;71.42;99960.78;343884;28;1033;-72
2022/12/02 00:47:49;;;;;;;23.50;12.63;;;;;;;7.30;71.62;99960.78;343905;28;1083;-72
2022/12/02 00:48:01;;;;;;;23.20;12.90;;;;;;;7.31;71.74;99960.75;343815;28;1243;-72
2022/12/02 00:48:13;;;;;;;24.88;13.18;;;;;;;7.30;71.39;99963.34;341509;28;6163;-72
2022/12/02 00:48:25;;;;;;;24.30;13.00;;;;;;;7.30;71.51;99959.03;341975;28;1186;-72
2022/12/02 00:48:37;;;;;;;23.48;12.38;;;;;;;7.31;71.60;99962.50;342104;28;1204;-72
2022/12/02 00:48:49;;;;;;;22.63;12.10;;;;;;;7.32;71.48;99959.88;342274;28;1117;-72
2022/12/02 00:49:07;;;;;;;21.58;11.55;;;;;;;7.35;71.67;99956.41;343048;28;938;-72
2022/12/02 00:49:19;;;;;;;22.27;11.48;;;;;;;7.36;71.11;99961.56;342457;28;1077;-72
2022/12/02 00:49:32;;;;;;;24.73;12.32;;;;;;;7.37;70.93;99949.47;342550;28;1084;-72
2022/12/02 00:49:44;;;;;;;24.13;12.52;;;;;;;7.37;71.19;99955.50;341135;29;1262;-72
2022/12/02 00:49:56;;;;;;;22.45;12.10;;;;;;;7.38;71.02;99954.63;341090;29;1020;-72
2022/12/02 00:50:09;;;;;;;22.40;11.82;;;;;;;7.38;71.13;99953.75;341812;28;1849;-72
2022/12/02 00:50:22;;;;;;;22.92;12.00;;;;;;;7.37;71.45;99952.91;342196;28;1286;-72
2022/12/02 00:50:33;;;;;;;24.00;12.38;;;;;;;7.37;71.01;99957.25;342309;28;1259;-72
2022/12/02 00:50:46;;;;;;;25.25;13.00;;;;;;;7.38;70.89;99958.94;342011;28;1781;-72
2022/12/02 00:50:58;;;;;;;25.30;12.82;;;;;;;7.36;71.13;99950.34;342074;28;1426;-72
2022/12/02 00:51:10;;;;;;;24.77;12.70;;;;;;;7.37;71.08;99952.06;341015;28;2160;-72
2022/12/02 00:51:22;;;;;;;21.30;12.30;;;;;;;7.38;71.23;99951.16;342917;28;1147;-72
2022/12/02 00:51:36;;;;;;;21.48;12.35;;;;;;;7.38;71.12;99953.75;344231;28;1329;-72
2022/12/02 00:51:48;;;;;;;21.73;11.98;;;;;;;7.38;70.74;99953.75;343236;28;1844;-72
2022/12/02 00:52:00;;;;;;;21.88;12.02;;;;;;;7.40;71.01;99958.06;342337;28;1069;-72
2022/12/02 00:52:12;;;;;;;23.02;12.52;;;;;;;7.38;70.86;99948.59;342310;28;1076;-72
2022/12/02 00:52:24;;;;;;;22.08;11.93;;;;;;;7.38;70.80;99952.03;342142;28;1968;-72
2022/12/02 00:52:36;;;;;;;22.40;11.80;;;;;;;7.39;70.73;99960.66;342651;28;1107;-72
2022/12/02 00:52:49;;;;;;;21.52;11.57;;;;;;;7.41;70.83;99953.72;342431;28;1174;-72
2022/12/02 00:53:01;;;;;;;20.67;11.02;;;;;;;7.43;71.12;99949.38;342127;28;1884;-72
2022/12/02 00:53:13;;;;;;;20.35;10.98;;;;;;;7.42;70.92;99950.25;342799;28;1870;-72
2022/12/02 00:53:25;;;;;;;21.98;11.95;;;;;;;7.44;71.10;99956.25;344040;28;1640;-72
2022/12/02 00:53:37;;;;;;;23.33;12.15;;;;;;;7.44;71.44;99953.66;343700;28;1298;-72
2022/12/02 00:53:49;;;;;;;23.92;12.10;;;;;;;7.43;71.22;99946.81;343944;28;1845;-72
2022/12/02 00:54:02;;;;;;;23.48;12.32;;;;;;;7.41;71.19;99948.56;344172;28;737;-72
2022/12/02 00:54:14;;;;;;;23.27;12.27;;;;;;;7.39;71.25;99948.56;344535;28;1103;-72
2022/12/02 00:54:26;;;;;;;23.02;12.20;;;;;;;7.38;71.52;99944.28;342252;28;1052;-72
2022/12/02 00:54:38;;;;;;;22.55;12.27;;;;;;;7.37;71.75;99952.91;342260;28;1050;-72
2022/12/02 00:54:50;;;;;;;22.70;12.65;;;;;;;7.33;72.10;99951.25;342239;28;1081;-72
2022/12/02 00:55:03;;;;;;;22.42;12.40;;;;;;;7.31;71.97;99945.25;342187;28;1651;-72
2022/12/02 00:55:16;;;;;;;22.73;12.32;;;;;;;7.32;71.91;99949.53;341397;28;1105;-72
2022/12/02 00:55:28;;;;;;;22.52;11.73;;;;;;;7.34;71.84;99947.75;340016;29;1048;-72
2022/12/02 00:55:40;;;;;;;21.58;11.27;;;;;;;7.35;71.84;99952.06;338551;29;1071;-72
2022/12/02 00:55:52;;;;;;;24.33;12.10;;;;;;;7.31;71.51;99946.97;338592;29;1120;-70
2022/12/02 00:56:04;;;;;;;26.52;13.02;;;;;;;7.31;71.46;99946.97;339044;29;1424;-72
2022/12/02 00:56:17;;;;;;;26.98;13.30;;;;;;;7.28;71.74;99945.28;339730;29;1135;-73
2022/12/02 00:56:29;;;;;;;24.98;12.73;;;;;;;7.28;71.78;99949.59;339226;29;1033;-74
2022/12/02 00:56:41;;;;;;;23.92;12.43;;;;;;;7.27;71.86;99945.31;339966;29;1056;-74
2022/12/02 00:56:53;;;;;;;21.98;11.85;;;;;;;7.27;71.89;99945.31;340502;29;1219;-74
2022/12/02 00:57:05;;;;;;;21.27;11.93;;;;;;;7.28;71.68;99950.44;339846;29;1281;-74
2022/12/02 00:57:18;;;;;;;21.63;11.97;;;;;;;7.30;71.70;99942.66;339450;29;1436;-72
2022/12/02 00:57:30;;;;;;;21.95;12.07;;;;;;;7.32;71.90;99946.09;340890;29;1574;-71
2022/12/02 00:57:42;;;;;;;22.05;11.70;;;;;;;7.32;71.96;99943.50;338252;29;2066;-71
2022/12/02 00:57:54;;;;;;;22.90;12.20;;;;;;;7.25;71.51;99949.66;338803;29;1544;-71
2022/12/02 00:58:06;;;;;;;23.20;12.23;;;;;;;7.23;72.08;99944.50;339158;29;1076;-71
2022/12/02 00:58:18;;;;;;;21.95;11.88;;;;;;;7.24;71.93;99946.19;340132;29;1183;-71
2022/12/02 00:58:30;;;;;;;23.40;12.05;;;;;;;7.24;71.53;99946.19;340730;29;1766;-71
2022/12/02 00:58:42;;;;;;;24.15;12.10;;;;;;;7.25;71.71;99947.91;340884;29;1048;-71
2022/12/02 00:58:54;;;;;;;23.95;12.05;;;;;;;7.26;71.75;99946.19;341110;29;1076;-71
2022/12/02 00:59:06;;;;;;;23.40;11.70;;;;;;;7.22;71.75;99952.28;341164;29;1071;-71
2022/12/02 00:59:18;;;;;;;24.52;12.02;;;;;;;7.19;71.99;99943.69;341133;28;1259;-71
2022/12/02 00:59:30;;;;;;;24.65;12.05;;;;;;;7.23;71.98;99948.81;344312;28;1191;-71
2022/12/02 00:59:42;;;;;;;22.80;11.95;;;;;;;7.20;72.01;99942.81;344258;28;1067;-71
2022/12/02 00:59:54;;;;;;;22.83;12.10;;;;;;;7.19;71.73;99943.69;343654;28;1235;-71
2022/12/02 01:00:08;;;;;;;25.83;13.00;;;;;;;7.14;71.84;99945.50;343954;28;1028;-74
2022/12/02 01:00:20;;;;;;;25.83;12.90;;;;;;;7.13;71.79;99948.94;343213;28;1247;-74
2022/12/02 01:00:32;;;;;;;23.70;12.23;;;;;;;7.14;71.78;99945.50;342530;28;1122;-74
2022/12/02 01:00:44;;;;;;;22.92;11.80;;;;;;;7.16;71.95;99948.91;342451;28;1181;-74
2022/12/02 01:00:57;;;;;;;22.10;11.65;;;;;;;7.16;71.87;99948.91;342346;28;1199;-71
2022/12/02 01:01:09;;;;;;;21.35;11.65;;;;;;;7.16;71.94;99941.16;342323;28;1710;-71
2022/12/02 01:01:21;;;;;;;22.13;11.57;;;;;;;7.18;71.69;99946.28;341915;28;1044;-71
2022/12/02 01:01:35;;;;;;;22.20;11.77;;;;;;;7.19;71.39;99948.00;341222;29;1067;-71
2022/12/02 01:01:47;;;;;;;22.10;12.02;;;;;;;7.22;71.27;99947.09;341358;29;787;-71
2022/12/02 01:01:59;;;;;;;21.80;12.25;;;;;;;7.22;71.86;99941.94;342031;28;1094;-71
2022/12/02 01:02:11;;;;;;;21.80;12.25;;;;;;;7.23;71.44;99948.81;343074;28;1675;-73
2022/12/02 01:02:23;;;;;;;21.33;12.15;;;;;;;7.21;71.58;99946.25;342352;28;1643;-74
2022/12/02 01:02:36;;;;;;;22.38;12.40;;;;;;;7.23;71.31;99944.50;343678;28;1497;-74
2022/12/02 01:02:48;;;;;;;21.88;12.38;;;;;;;7.24;71.22;99942.75;343825;28;1045;-73
2022/12/02 01:03:00;;;;;;;21.67;12.40;;;;;;;7.25;71.05;99952.25;343229;28;1968;-71
2022/12/02 01:03:13;;;;;;;21.92;12.48;;;;;;;7.15;71.28;99943.75;343660;28;1782;-71
2022/12/02 01:03:24;;;;;;;23.33;12.25;;;;;;;7.15;71.38;99946.34;343738;28;1449;-71
2022/12/02 01:03:36;;;;;;;23.25;11.93;;;;;;;7.16;71.38;99948.91;343724;28;1140;-71
2022/12/02 01:03:56;;;;;;;21.67;12.15;;;;;;;7.18;71.68;99944.56;342291;28;1234;-71
2022/12/02 01:04:08;;;;;;;22.05;12.52;;;;;;;7.20;71.86;99948.00;342107;28;1399;-71
2022/12/02 01:04:21;;;;;;;22.95;12.52;;;;;;;7.21;71.71;99946.25;342803;28;1384;-73
2022/12/02 01:04:33;;;;;;;23.70;12.30;;;;;;;7.15;71.47;99947.19;343438;28;1072;-73
2022/12/02 01:04:45;;;;;;;24.10;12.23;;;;;;;7.18;71.68;99947.16;343586;28;1930;-74
2022/12/02 01:04:57;;;;;;;22.80;12.23;;;;;;;7.18;71.86;99951.44;340676;29;2234;-74
2022/12/02 01:05:09;;;;;;;22.98;12.23;;;;;;;7.18;72.26;99942.00;340092;29;2079;-71
2022/12/02 01:05:21;;;;;;;22.38;12.00;;;;;;;7.18;72.11;99941.09;340857;29;1182;-71
2022/12/02 01:05:33;;;;;;;21.77;11.88;;;;;;;7.18;71.85;99946.28;341192;29;1160;-71
2022/12/02 01:05:46;;;;;;;21.70;12.10;;;;;;;7.14;71.96;99942.91;340864;29;1350;-71
2022/12/02 01:05:58;;;;;;;23.60;12.55;;;;;;;7.12;72.26;99942.06;342534;28;1091;-71
2022/12/02 01:06:10;;;;;;;25.15;12.85;;;;;;;7.13;72.49;99943.78;342414;28;1216;-71
2022/12/02 01:06:22;;;;;;;24.75;12.90;;;;;;;7.05;72.40;99940.44;342665;28;1244;-73
2022/12/02 01:06:35;;;;;;;24.08;12.43;;;;;;;7.07;72.46;99943.00;342217;28;1244;-73
2022/12/02 01:06:47;;;;;;;24.17;12.63;;;;;;;7.06;72.39;99942.13;340423;29;1864;-73
2022/12/02 01:06:59;;;;;;;22.67;12.63;;;;;;;7.08;72.38;99945.56;341660;28;1099;-73
2022/12/02 01:07:13;;;;;;;21.80;12.38;;;;;;;7.09;72.59;99941.25;342758;28;1043;-71
2022/12/02 01:07:25;;;;;;;21.48;12.02;;;;;;;7.07;72.61;99943.00;342634;28;1397;-71